sensor_id;sensor_type;location;lat;lon;timestamp;P1;durP1;ratioP1;P2;durP2;ratioP2
26742;SDS011;14341;51.256;22.478;2022-07-01T00:00:13;21.15;;;16.45;;
26742;SDS011;14341;51.256;22.478;2022-07-01T00:03:18;18.23;;;16.05;;
26742;SDS011;14341;51.256;22.478;2022-07-01T00:06:22;22.00;;;15.70;;
26742;SDS011;14341;51.256;22.478;2022-07-01T00:09:25;20.35;;;16.10;;
26742;SDS011;14341;51.256;22.478;2022-07-01T00:12:30;17.95;;;15.35;;
26742;SDS011;14341;51.256;22.478;2022-07-01T00:15:36;19.42;;;15.15;;
26742;SDS011;14341;51.256;22.478;2022-07-01T00:18:41;18.55;;;15.70;;
26742;SDS011;14341;51.256;22.478;2022-07-01T00:21:44;19.63;;;15.27;;
26742;SDS011;14341;51.256;22.478;2022-07-01T00:24:47;17.17;;;15.35;;
26742;SDS011;14341;51.256;22.478;2022-07-01T00:27:51;17.55;;;15.75;;
26742;SDS011;14341;51.256;22.478;2022-07-01T00:30:54;17.52;;;15.65;;
26742;SDS011;14341;51.256;22.478;2022-07-01T00:33:58;21.50;;;15.38;;
26742;SDS011;14341;51.256;22.478;2022-07-01T00:37:02;17.67;;;15.23;;
26742;SDS011;14341;51.256;22.478;2022-07-01T00:40:06;17.38;;;15.68;;
26742;SDS011;14341;51.256;22.478;2022-07-01T00:43:10;19.15;;;15.95;;
26742;SDS011;14341;51.256;22.478;2022-07-01T00:46:13;18.17;;;15.60;;
26742;SDS011;14341;51.256;22.478;2022-07-01T00:49:24;17.27;;;15.48;;
26742;SDS011;14341;51.256;22.478;2022-07-01T00:52:28;22.95;;;15.68;;
26742;SDS011;14341;51.256;22.478;2022-07-01T00:55:31;17.08;;;15.45;;
26742;SDS011;14341;51.256;22.478;2022-07-01T00:58:35;19.60;;;15.02;;
26742;SDS011;14341;51.256;22.478;2022-07-01T01:01:38;17.45;;;15.68;;
26742;SDS011;14341;51.256;22.478;2022-07-01T01:04:43;17.35;;;15.65;;
26742;SDS011;14341;51.256;22.478;2022-07-01T01:07:47;20.08;;;16.77;;
26742;SDS011;14341;51.256;22.478;2022-07-01T01:10:51;17.02;;;15.15;;
26742;SDS011;14341;51.256;22.478;2022-07-01T01:13:55;17.17;;;15.40;;
26742;SDS011;14341;51.256;22.478;2022-07-01T01:16:59;18.15;;;16.25;;
26742;SDS011;14341;51.256;22.478;2022-07-01T01:20:04;18.17;;;16.35;;
26742;SDS011;14341;51.256;22.478;2022-07-01T01:23:09;20.08;;;16.90;;
26742;SDS011;14341;51.256;22.478;2022-07-01T01:26:16;18.52;;;16.50;;
26742;SDS011;14341;51.256;22.478;2022-07-01T01:29:20;21.75;;;17.23;;
26742;SDS011;14341;51.256;22.478;2022-07-01T01:32:23;20.77;;;18.10;;
26742;SDS011;14341;51.256;22.478;2022-07-01T01:35:27;20.52;;;18.25;;
26742;SDS011;14341;51.256;22.478;2022-07-01T01:38:31;20.88;;;18.77;;
26742;SDS011;14341;51.256;22.478;2022-07-01T01:41:36;26.00;;;18.20;;
26742;SDS011;14341;51.256;22.478;2022-07-01T01:44:39;21.48;;;18.77;;
26742;SDS011;14341;51.256;22.478;2022-07-01T01:47:42;21.15;;;17.98;;
26742;SDS011;14341;51.256;22.478;2022-07-01T01:50:45;21.20;;;18.98;;
26742;SDS011;14341;51.256;22.478;2022-07-01T01:53:50;20.65;;;18.08;;
26742;SDS011;14341;51.256;22.478;2022-07-01T01:56:54;20.05;;;18.05;;
26742;SDS011;14341;51.256;22.478;2022-07-01T01:59:57;19.75;;;17.85;;
26742;SDS011;14341;51.256;22.478;2022-07-01T02:03:00;21.27;;;19.00;;
26742;SDS011;14341;51.256;22.478;2022-07-01T02:06:04;22.27;;;20.00;;
26742;SDS011;14341;51.256;22.478;2022-07-01T02:09:09;22.40;;;19.60;;
26742;SDS011;14341;51.256;22.478;2022-07-01T02:12:12;22.02;;;19.42;;
26742;SDS011;14341;51.256;22.478;2022-07-01T02:15:16;22.20;;;20.00;;
26742;SDS011;14341;51.256;22.478;2022-07-01T02:18:19;23.85;;;21.42;;
26742;SDS011;14341;51.256;22.478;2022-07-01T02:21:23;23.33;;;20.85;;
26742;SDS011;14341;51.256;22.478;2022-07-01T02:24:27;24.50;;;21.88;;
26742;SDS011;14341;51.256;22.478;2022-07-01T02:27:30;25.63;;;22.23;;
26742;SDS011;14341;51.256;22.478;2022-07-01T02:30:34;26.67;;;22.85;;
26742;SDS011;14341;51.256;22.478;2022-07-01T02:33:38;25.35;;;22.58;;
26742;SDS011;14341;51.256;22.478;2022-07-01T02:36:42;25.50;;;22.02;;
26742;SDS011;14341;51.256;22.478;2022-07-01T02:39:46;24.52;;;21.77;;
26742;SDS011;14341;51.256;22.478;2022-07-01T02:42:50;25.63;;;22.92;;
26742;SDS011;14341;51.256;22.478;2022-07-01T02:45:53;28.20;;;23.13;;
26742;SDS011;14341;51.256;22.478;2022-07-01T02:48:56;27.13;;;23.58;;
26742;SDS011;14341;51.256;22.478;2022-07-01T02:51:59;27.60;;;23.42;;
26742;SDS011;14341;51.256;22.478;2022-07-01T02:55:05;25.23;;;22.27;;
26742;SDS011;14341;51.256;22.478;2022-07-01T02:58:10;25.58;;;23.10;;
26742;SDS011;14341;51.256;22.478;2022-07-01T03:01:13;29.33;;;23.77;;
26742;SDS011;14341;51.256;22.478;2022-07-01T03:04:16;27.10;;;24.23;;
26742;SDS011;14341;51.256;22.478;2022-07-01T03:07:20;26.80;;;24.00;;
26742;SDS011;14341;51.256;22.478;2022-07-01T03:10:24;27.17;;;24.15;;
26742;SDS011;14341;51.256;22.478;2022-07-01T03:13:28;27.40;;;23.48;;
26742;SDS011;14341;51.256;22.478;2022-07-01T03:16:31;27.30;;;24.48;;
26742;SDS011;14341;51.256;22.478;2022-07-01T03:19:34;28.88;;;24.30;;
26742;SDS011;14341;51.256;22.478;2022-07-01T03:22:38;27.77;;;24.77;;
26742;SDS011;14341;51.256;22.478;2022-07-01T03:25:43;28.33;;;24.75;;
26742;SDS011;14341;51.256;22.478;2022-07-01T03:28:46;28.65;;;23.85;;
26742;SDS011;14341;51.256;22.478;2022-07-01T03:31:49;28.15;;;25.17;;
26742;SDS011;14341;51.256;22.478;2022-07-01T03:34:53;36.33;;;24.20;;
26742;SDS011;14341;51.256;22.478;2022-07-01T03:37:57;30.75;;;23.38;;
26742;SDS011;14341;51.256;22.478;2022-07-01T03:41:01;25.33;;;22.73;;
26742;SDS011;14341;51.256;22.478;2022-07-01T03:44:05;24.45;;;21.83;;
26742;SDS011;14341;51.256;22.478;2022-07-01T03:47:08;24.42;;;21.83;;
26742;SDS011;14341;51.256;22.478;2022-07-01T03:50:11;23.75;;;21.20;;
26742;SDS011;14341;51.256;22.478;2022-07-01T03:53:14;26.00;;;21.90;;
26742;SDS011;14341;51.256;22.478;2022-07-01T03:56:39;25.25;;;21.52;;
26742;SDS011;14341;51.256;22.478;2022-07-01T03:59:43;23.30;;;20.15;;
26742;SDS011;14341;51.256;22.478;2022-07-01T04:02:48;24.35;;;20.15;;
26742;SDS011;14341;51.256;22.478;2022-07-01T04:05:51;24.15;;;20.17;;
26742;SDS011;14341;51.256;22.478;2022-07-01T04:08:54;22.35;;;20.05;;
26742;SDS011;14341;51.256;22.478;2022-07-01T04:11:59;22.55;;;19.25;;
26742;SDS011;14341;51.256;22.478;2022-07-01T04:15:03;21.25;;;18.63;;
26742;SDS011;14341;51.256;22.478;2022-07-01T04:18:07;26.02;;;19.33;;
26742;SDS011;14341;51.256;22.478;2022-07-01T04:21:10;25.27;;;19.42;;
26742;SDS011;14341;51.256;22.478;2022-07-01T04:24:37;20.48;;;18.35;;
26742;SDS011;14341;51.256;22.478;2022-07-01T04:27:43;25.05;;;18.98;;
26742;SDS011;14341;51.256;22.478;2022-07-01T04:30:46;20.08;;;17.95;;
26742;SDS011;14341;51.256;22.478;2022-07-01T04:33:49;24.77;;;17.15;;
26742;SDS011;14341;51.256;22.478;2022-07-01T04:36:53;22.33;;;18.65;;
26742;SDS011;14341;51.256;22.478;2022-07-01T04:39:56;21.27;;;16.77;;
26742;SDS011;14341;51.256;22.478;2022-07-01T04:43:01;23.02;;;18.63;;
26742;SDS011;14341;51.256;22.478;2022-07-01T04:46:03;25.45;;;18.38;;
26742;SDS011;14341;51.256;22.478;2022-07-01T04:49:07;32.00;;;17.65;;
26742;SDS011;14341;51.256;22.478;2022-07-01T04:52:10;26.40;;;17.90;;
26742;SDS011;14341;51.256;22.478;2022-07-01T04:55:13;28.80;;;19.60;;
26742;SDS011;14341;51.256;22.478;2022-07-01T04:58:18;69.95;;;54.97;;
26742;SDS011;14341;51.256;22.478;2022-07-01T05:01:21;32.40;;;27.48;;
26742;SDS011;14341;51.256;22.478;2022-07-01T05:04:25;30.35;;;20.65;;
26742;SDS011;14341;51.256;22.478;2022-07-01T05:07:30;25.30;;;16.95;;
26742;SDS011;14341;51.256;22.478;2022-07-01T05:10:33;20.02;;;16.90;;
26742;SDS011;14341;51.256;22.478;2022-07-01T05:13:38;20.13;;;15.85;;
26742;SDS011;14341;51.256;22.478;2022-07-01T05:16:41;24.20;;;16.90;;
26742;SDS011;14341;51.256;22.478;2022-07-01T05:19:44;27.77;;;18.17;;
26742;SDS011;14341;51.256;22.478;2022-07-01T05:23:05;28.33;;;22.00;;
26742;SDS011;14341;51.256;22.478;2022-07-01T05:26:09;26.55;;;17.13;;
26742;SDS011;14341;51.256;22.478;2022-07-01T05:29:18;23.25;;;16.75;;
26742;SDS011;14341;51.256;22.478;2022-07-01T05:32:21;20.58;;;16.25;;
26742;SDS011;14341;51.256;22.478;2022-07-01T05:35:25;25.58;;;16.17;;
26742;SDS011;14341;51.256;22.478;2022-07-01T05:38:28;23.35;;;16.70;;
26742;SDS011;14341;51.256;22.478;2022-07-01T05:41:32;19.33;;;15.30;;
26742;SDS011;14341;51.256;22.478;2022-07-01T05:44:37;17.13;;;15.32;;
26742;SDS011;14341;51.256;22.478;2022-07-01T05:47:41;25.23;;;21.35;;
26742;SDS011;14341;51.256;22.478;2022-07-01T05:50:44;46.63;;;33.60;;
26742;SDS011;14341;51.256;22.478;2022-07-01T05:53:48;24.63;;;19.65;;
26742;SDS011;14341;51.256;22.478;2022-07-01T05:56:52;26.08;;;16.38;;
26742;SDS011;14341;51.256;22.478;2022-07-01T05:59:56;18.90;;;15.18;;
26742;SDS011;14341;51.256;22.478;2022-07-01T06:03:00;23.17;;;15.13;;
26742;SDS011;14341;51.256;22.478;2022-07-01T06:06:03;20.08;;;14.65;;
26742;SDS011;14341;51.256;22.478;2022-07-01T06:09:07;22.60;;;14.88;;
26742;SDS011;14341;51.256;22.478;2022-07-01T06:12:10;18.98;;;14.60;;
26742;SDS011;14341;51.256;22.478;2022-07-01T06:15:15;23.52;;;15.25;;
26742;SDS011;14341;51.256;22.478;2022-07-01T06:18:18;19.95;;;14.68;;
26742;SDS011;14341;51.256;22.478;2022-07-01T06:21:22;19.60;;;15.55;;
26742;SDS011;14341;51.256;22.478;2022-07-01T06:24:25;22.30;;;14.00;;
26742;SDS011;14341;51.256;22.478;2022-07-01T06:27:28;18.38;;;15.32;;
26742;SDS011;14341;51.256;22.478;2022-07-01T06:30:33;24.33;;;14.30;;
26742;SDS011;14341;51.256;22.478;2022-07-01T06:33:37;21.08;;;14.40;;
26742;SDS011;14341;51.256;22.478;2022-07-01T06:36:40;26.95;;;14.27;;
26742;SDS011;14341;51.256;22.478;2022-07-01T06:39:43;18.50;;;13.88;;
26742;SDS011;14341;51.256;22.478;2022-07-01T06:42:46;15.73;;;14.07;;
26742;SDS011;14341;51.256;22.478;2022-07-01T06:45:52;16.88;;;13.32;;
26742;SDS011;14341;51.256;22.478;2022-07-01T06:48:56;17.65;;;14.02;;
26742;SDS011;14341;51.256;22.478;2022-07-01T06:52:00;18.90;;;13.73;;
26742;SDS011;14341;51.256;22.478;2022-07-01T06:55:04;18.95;;;16.95;;
26742;SDS011;14341;51.256;22.478;2022-07-01T06:58:08;22.05;;;14.98;;
26742;SDS011;14341;51.256;22.478;2022-07-01T07:01:13;18.65;;;13.68;;
26742;SDS011;14341;51.256;22.478;2022-07-01T07:04:16;20.38;;;13.13;;
26742;SDS011;14341;51.256;22.478;2022-07-01T07:07:39;16.85;;;13.30;;
26742;SDS011;14341;51.256;22.478;2022-07-01T07:10:43;17.40;;;14.85;;
26742;SDS011;14341;51.256;22.478;2022-07-01T07:13:46;17.73;;;14.18;;
26742;SDS011;14341;51.256;22.478;2022-07-01T07:16:51;16.85;;;15.07;;
26742;SDS011;14341;51.256;22.478;2022-07-01T07:19:55;19.58;;;14.13;;
26742;SDS011;14341;51.256;22.478;2022-07-01T07:22:59;22.98;;;13.63;;
26742;SDS011;14341;51.256;22.478;2022-07-01T07:26:02;18.38;;;13.27;;
26742;SDS011;14341;51.256;22.478;2022-07-01T07:29:06;16.27;;;12.95;;
26742;SDS011;14341;51.256;22.478;2022-07-01T07:32:11;17.08;;;12.80;;
26742;SDS011;14341;51.256;22.478;2022-07-01T07:35:14;19.02;;;12.73;;
26742;SDS011;14341;51.256;22.478;2022-07-01T07:38:18;20.60;;;13.52;;
26742;SDS011;14341;51.256;22.478;2022-07-01T07:41:21;20.95;;;13.35;;
26742;SDS011;14341;51.256;22.478;2022-07-01T07:44:25;19.25;;;13.10;;
26742;SDS011;14341;51.256;22.478;2022-07-01T07:47:29;22.20;;;14.68;;
26742;SDS011;14341;51.256;22.478;2022-07-01T07:50:33;16.17;;;13.82;;
26742;SDS011;14341;51.256;22.478;2022-07-01T07:53:37;20.98;;;13.50;;
26742;SDS011;14341;51.256;22.478;2022-07-01T07:56:40;23.10;;;14.23;;
26742;SDS011;14341;51.256;22.478;2022-07-01T07:59:46;19.48;;;13.05;;
26742;SDS011;14341;51.256;22.478;2022-07-01T08:02:51;24.58;;;13.48;;
26742;SDS011;14341;51.256;22.478;2022-07-01T08:05:54;16.70;;;12.25;;
26742;SDS011;14341;51.256;22.478;2022-07-01T08:08:58;20.58;;;11.73;;
26742;SDS011;14341;51.256;22.478;2022-07-01T08:12:02;18.13;;;11.63;;
26742;SDS011;14341;51.256;22.478;2022-07-01T08:15:06;18.40;;;11.35;;
26742;SDS011;14341;51.256;22.478;2022-07-01T08:18:12;17.23;;;11.43;;
26742;SDS011;14341;51.256;22.478;2022-07-01T08:21:15;14.32;;;11.68;;
26742;SDS011;14341;51.256;22.478;2022-07-01T08:24:18;11.73;;;10.40;;
26742;SDS011;14341;51.256;22.478;2022-07-01T08:27:22;12.43;;;10.35;;
26742;SDS011;14341;51.256;22.478;2022-07-01T08:30:25;17.75;;;10.23;;
26742;SDS011;14341;51.256;22.478;2022-07-01T08:33:30;28.85;;;25.50;;
26742;SDS011;14341;51.256;22.478;2022-07-01T08:36:33;20.80;;;18.30;;
26742;SDS011;14341;51.256;22.478;2022-07-01T08:39:37;13.45;;;10.93;;
26742;SDS011;14341;51.256;22.478;2022-07-01T08:42:40;15.23;;;9.93;;
26742;SDS011;14341;51.256;22.478;2022-07-01T08:45:45;16.35;;;9.90;;
26742;SDS011;14341;51.256;22.478;2022-07-01T08:48:50;10.25;;;9.23;;
26742;SDS011;14341;51.256;22.478;2022-07-01T08:51:53;13.15;;;8.85;;
26742;SDS011;14341;51.256;22.478;2022-07-01T08:54:57;16.23;;;9.48;;
26742;SDS011;14341;51.256;22.478;2022-07-01T08:58:02;15.40;;;13.55;;
26742;SDS011;14341;51.256;22.478;2022-07-01T09:01:12;11.15;;;10.00;;
26742;SDS011;14341;51.256;22.478;2022-07-01T09:04:18;15.05;;;8.65;;
26742;SDS011;14341;51.256;22.478;2022-07-01T09:07:30;11.32;;;8.88;;
26742;SDS011;14341;51.256;22.478;2022-07-01T09:10:42;17.80;;;8.40;;
26742;SDS011;14341;51.256;22.478;2022-07-01T09:13:45;13.95;;;8.85;;
26742;SDS011;14341;51.256;22.478;2022-07-01T09:17:09;9.90;;;8.20;;
26742;SDS011;14341;51.256;22.478;2022-07-01T09:20:30;10.98;;;7.97;;
26742;SDS011;14341;51.256;22.478;2022-07-01T09:23:37;11.65;;;8.05;;
26742;SDS011;14341;51.256;22.478;2022-07-01T09:26:41;9.38;;;7.90;;
26742;SDS011;14341;51.256;22.478;2022-07-01T09:29:54;14.20;;;9.10;;
26742;SDS011;14341;51.256;22.478;2022-07-01T09:33:04;22.85;;;8.70;;
26742;SDS011;14341;51.256;22.478;2022-07-01T09:36:10;14.30;;;9.48;;
26742;SDS011;14341;51.256;22.478;2022-07-01T09:39:17;29.83;;;26.60;;
26742;SDS011;14341;51.256;22.478;2022-07-01T09:42:37;12.57;;;8.10;;
26742;SDS011;14341;51.256;22.478;2022-07-01T09:45:54;13.52;;;8.80;;
26742;SDS011;14341;51.256;22.478;2022-07-01T09:49:00;9.63;;;8.60;;
26742;SDS011;14341;51.256;22.478;2022-07-01T09:52:07;9.27;;;8.30;;
26742;SDS011;14341;51.256;22.478;2022-07-01T09:55:13;8.98;;;8.05;;
26742;SDS011;14341;51.256;22.478;2022-07-01T09:58:16;10.32;;;8.85;;
26742;SDS011;14341;51.256;22.478;2022-07-01T10:01:20;15.75;;;8.38;;
26742;SDS011;14341;51.256;22.478;2022-07-01T10:04:25;10.27;;;8.90;;
26742;SDS011;14341;51.256;22.478;2022-07-01T10:07:36;14.48;;;9.25;;
26742;SDS011;14341;51.256;22.478;2022-07-01T10:10:49;13.13;;;8.93;;
26742;SDS011;14341;51.256;22.478;2022-07-01T10:13:58;18.58;;;13.75;;
26742;SDS011;14341;51.256;22.478;2022-07-01T10:17:02;12.52;;;8.82;;
26742;SDS011;14341;51.256;22.478;2022-07-01T10:20:07;10.63;;;8.23;;
26742;SDS011;14341;51.256;22.478;2022-07-01T10:23:14;12.05;;;7.80;;
26742;SDS011;14341;51.256;22.478;2022-07-01T10:26:18;11.27;;;8.07;;
26742;SDS011;14341;51.256;22.478;2022-07-01T10:29:27;23.27;;;7.95;;
26742;SDS011;14341;51.256;22.478;2022-07-01T10:32:34;13.07;;;8.25;;
26742;SDS011;14341;51.256;22.478;2022-07-01T10:36:09;9.25;;;8.35;;
26742;SDS011;14341;51.256;22.478;2022-07-01T10:39:16;10.15;;;8.15;;
26742;SDS011;14341;51.256;22.478;2022-07-01T10:42:28;10.45;;;7.85;;
26742;SDS011;14341;51.256;22.478;2022-07-01T10:45:40;9.30;;;8.23;;
26742;SDS011;14341;51.256;22.478;2022-07-01T10:48:45;10.32;;;8.25;;
26742;SDS011;14341;51.256;22.478;2022-07-01T10:51:52;16.58;;;7.65;;
26742;SDS011;14341;51.256;22.478;2022-07-01T10:54:58;9.18;;;8.10;;
26742;SDS011;14341;51.256;22.478;2022-07-01T10:58:03;9.20;;;7.80;;
26742;SDS011;14341;51.256;22.478;2022-07-01T11:01:06;9.27;;;7.50;;
26742;SDS011;14341;51.256;22.478;2022-07-01T11:04:10;10.95;;;7.60;;
26742;SDS011;14341;51.256;22.478;2022-07-01T11:07:14;10.43;;;7.45;;
26742;SDS011;14341;51.256;22.478;2022-07-01T11:10:19;10.98;;;7.93;;
26742;SDS011;14341;51.256;22.478;2022-07-01T11:13:22;8.70;;;7.20;;
26742;SDS011;14341;51.256;22.478;2022-07-01T11:16:27;10.20;;;7.28;;
26742;SDS011;14341;51.256;22.478;2022-07-01T11:19:32;17.98;;;16.08;;
26742;SDS011;14341;51.256;22.478;2022-07-01T11:22:36;10.98;;;7.13;;
26742;SDS011;14341;51.256;22.478;2022-07-01T11:25:42;8.05;;;6.70;;
26742;SDS011;14341;51.256;22.478;2022-07-01T11:28:45;9.18;;;7.60;;
26742;SDS011;14341;51.256;22.478;2022-07-01T11:31:49;12.88;;;7.32;;
26742;SDS011;14341;51.256;22.478;2022-07-01T11:34:53;10.30;;;7.50;;
26742;SDS011;14341;51.256;22.478;2022-07-01T11:38:03;8.13;;;7.32;;
26742;SDS011;14341;51.256;22.478;2022-07-01T11:41:30;11.35;;;7.60;;
26742;SDS011;14341;51.256;22.478;2022-07-01T11:44:36;10.07;;;7.30;;
26742;SDS011;14341;51.256;22.478;2022-07-01T11:47:41;14.20;;;7.20;;
26742;SDS011;14341;51.256;22.478;2022-07-01T11:50:45;12.55;;;6.65;;
26742;SDS011;14341;51.256;22.478;2022-07-01T11:53:49;7.70;;;7.00;;
26742;SDS011;14341;51.256;22.478;2022-07-01T11:56:55;8.13;;;6.20;;
26742;SDS011;14341;51.256;22.478;2022-07-01T12:00:12;10.35;;;5.45;;
26742;SDS011;14341;51.256;22.478;2022-07-01T12:03:29;6.85;;;5.85;;
26742;SDS011;14341;51.256;22.478;2022-07-01T12:06:33;9.80;;;5.57;;
26742;SDS011;14341;51.256;22.478;2022-07-01T12:09:39;9.13;;;6.35;;
26742;SDS011;14341;51.256;22.478;2022-07-01T12:12:45;6.60;;;5.82;;
26742;SDS011;14341;51.256;22.478;2022-07-01T12:15:48;9.95;;;5.40;;
26742;SDS011;14341;51.256;22.478;2022-07-01T12:18:55;8.40;;;5.00;;
26742;SDS011;14341;51.256;22.478;2022-07-01T12:22:02;6.40;;;4.95;;
26742;SDS011;14341;51.256;22.478;2022-07-01T12:25:11;6.78;;;4.40;;
26742;SDS011;14341;51.256;22.478;2022-07-01T12:28:26;5.93;;;4.60;;
26742;SDS011;14341;51.256;22.478;2022-07-01T12:31:30;5.82;;;4.70;;
26742;SDS011;14341;51.256;22.478;2022-07-01T12:34:37;12.48;;;6.28;;
26742;SDS011;14341;51.256;22.478;2022-07-01T12:37:42;6.65;;;4.65;;
26742;SDS011;14341;51.256;22.478;2022-07-01T12:40:46;7.97;;;4.97;;
26742;SDS011;14341;51.256;22.478;2022-07-01T12:43:51;7.57;;;4.80;;
26742;SDS011;14341;51.256;22.478;2022-07-01T12:46:54;9.55;;;5.15;;
26742;SDS011;14341;51.256;22.478;2022-07-01T12:50:11;8.15;;;5.25;;
26742;SDS011;14341;51.256;22.478;2022-07-01T12:53:18;6.88;;;5.00;;
26742;SDS011;14341;51.256;22.478;2022-07-01T12:56:23;6.38;;;5.53;;
26742;SDS011;14341;51.256;22.478;2022-07-01T12:59:29;6.15;;;5.55;;
26742;SDS011;14341;51.256;22.478;2022-07-01T13:02:32;6.97;;;5.47;;
26742;SDS011;14341;51.256;22.478;2022-07-01T13:05:36;9.73;;;5.15;;
26742;SDS011;14341;51.256;22.478;2022-07-01T13:08:41;5.53;;;5.00;;
26742;SDS011;14341;51.256;22.478;2022-07-01T13:11:44;6.10;;;4.90;;
26742;SDS011;14341;51.256;22.478;2022-07-01T13:14:49;7.68;;;4.88;;
26742;SDS011;14341;51.256;22.478;2022-07-01T13:17:52;7.40;;;5.25;;
26742;SDS011;14341;51.256;22.478;2022-07-01T13:20:56;6.13;;;4.88;;
26742;SDS011;14341;51.256;22.478;2022-07-01T13:23:59;5.63;;;5.03;;
26742;SDS011;14341;51.256;22.478;2022-07-01T13:27:23;7.13;;;4.80;;
26742;SDS011;14341;51.256;22.478;2022-07-01T13:30:28;5.75;;;5.25;;
26742;SDS011;14341;51.256;22.478;2022-07-01T13:33:31;8.43;;;5.20;;
26742;SDS011;14341;51.256;22.478;2022-07-01T13:36:35;9.00;;;4.95;;
26742;SDS011;14341;51.256;22.478;2022-07-01T13:39:38;6.28;;;5.03;;
26742;SDS011;14341;51.256;22.478;2022-07-01T13:42:43;6.88;;;4.45;;
26742;SDS011;14341;51.256;22.478;2022-07-01T13:45:48;6.47;;;4.70;;
26742;SDS011;14341;51.256;22.478;2022-07-01T13:48:52;6.95;;;5.13;;
26742;SDS011;14341;51.256;22.478;2022-07-01T13:51:56;6.45;;;5.00;;
26742;SDS011;14341;51.256;22.478;2022-07-01T13:55:00;8.52;;;4.95;;
26742;SDS011;14341;51.256;22.478;2022-07-01T13:58:03;6.43;;;5.10;;
26742;SDS011;14341;51.256;22.478;2022-07-01T14:01:08;6.18;;;5.10;;
26742;SDS011;14341;51.256;22.478;2022-07-01T14:04:12;9.90;;;5.00;;
26742;SDS011;14341;51.256;22.478;2022-07-01T14:07:16;8.23;;;5.20;;
26742;SDS011;14341;51.256;22.478;2022-07-01T14:10:20;9.98;;;5.03;;
26742;SDS011;14341;51.256;22.478;2022-07-01T14:13:24;9.45;;;5.50;;
26742;SDS011;14341;51.256;22.478;2022-07-01T14:16:29;6.75;;;5.22;;
26742;SDS011;14341;51.256;22.478;2022-07-01T14:19:33;9.70;;;5.55;;
26742;SDS011;14341;51.256;22.478;2022-07-01T14:22:37;9.52;;;5.20;;
26742;SDS011;14341;51.256;22.478;2022-07-01T14:25:40;9.35;;;5.28;;
26742;SDS011;14341;51.256;22.478;2022-07-01T14:28:46;6.10;;;5.40;;
26742;SDS011;14341;51.256;22.478;2022-07-01T14:31:51;8.98;;;5.68;;
26742;SDS011;14341;51.256;22.478;2022-07-01T14:34:55;7.38;;;5.00;;
26742;SDS011;14341;51.256;22.478;2022-07-01T14:37:59;6.15;;;5.15;;
26742;SDS011;14341;51.256;22.478;2022-07-01T14:41:02;7.18;;;5.15;;
26742;SDS011;14341;51.256;22.478;2022-07-01T14:44:08;5.55;;;5.05;;
26742;SDS011;14341;51.256;22.478;2022-07-01T14:47:13;6.70;;;5.25;;
26742;SDS011;14341;51.256;22.478;2022-07-01T14:50:16;6.35;;;5.25;;
26742;SDS011;14341;51.256;22.478;2022-07-01T14:53:20;6.07;;;5.47;;
26742;SDS011;14341;51.256;22.478;2022-07-01T14:56:23;5.82;;;4.97;;
26742;SDS011;14341;51.256;22.478;2022-07-01T14:59:26;8.35;;;4.95;;
26742;SDS011;14341;51.256;22.478;2022-07-01T15:02:31;6.50;;;4.70;;
26742;SDS011;14341;51.256;22.478;2022-07-01T15:05:35;5.75;;;4.90;;
26742;SDS011;14341;51.256;22.478;2022-07-01T15:08:39;5.68;;;4.95;;
26742;SDS011;14341;51.256;22.478;2022-07-01T15:11:44;10.73;;;5.45;;
26742;SDS011;14341;51.256;22.478;2022-07-01T15:14:54;6.18;;;5.00;;
26742;SDS011;14341;51.256;22.478;2022-07-01T15:17:59;6.82;;;5.13;;
26742;SDS011;14341;51.256;22.478;2022-07-01T15:21:02;5.88;;;4.80;;
26742;SDS011;14341;51.256;22.478;2022-07-01T15:24:06;6.55;;;5.00;;
26742;SDS011;14341;51.256;22.478;2022-07-01T15:27:10;8.15;;;5.03;;
26742;SDS011;14341;51.256;22.478;2022-07-01T15:30:17;5.30;;;4.80;;
26742;SDS011;14341;51.256;22.478;2022-07-01T15:36:37;9.70;;;5.05;;
26742;SDS011;14341;51.256;22.478;2022-07-01T15:39:41;6.30;;;4.60;;
26742;SDS011;14341;51.256;22.478;2022-07-01T15:42:44;6.53;;;4.70;;
26742;SDS011;14341;51.256;22.478;2022-07-01T15:45:48;9.80;;;5.00;;
26742;SDS011;14341;51.256;22.478;2022-07-01T15:48:55;7.07;;;4.65;;
26742;SDS011;14341;51.256;22.478;2022-07-01T15:51:59;5.47;;;4.22;;
26742;SDS011;14341;51.256;22.478;2022-07-01T15:55:02;6.57;;;4.35;;
26742;SDS011;14341;51.256;22.478;2022-07-01T15:58:06;6.60;;;4.40;;
26742;SDS011;14341;51.256;22.478;2022-07-01T16:01:09;6.75;;;4.35;;
26742;SDS011;14341;51.256;22.478;2022-07-01T16:04:14;7.03;;;4.72;;
26742;SDS011;14341;51.256;22.478;2022-07-01T16:07:19;8.75;;;4.32;;
26742;SDS011;14341;51.256;22.478;2022-07-01T16:10:29;9.10;;;4.75;;
26742;SDS011;14341;51.256;22.478;2022-07-01T16:13:46;11.23;;;4.35;;
26742;SDS011;14341;51.256;22.478;2022-07-01T16:16:51;8.10;;;4.03;;
26742;SDS011;14341;51.256;22.478;2022-07-01T16:19:58;4.72;;;4.07;;
26742;SDS011;14341;51.256;22.478;2022-07-01T16:23:06;6.45;;;4.18;;
26742;SDS011;14341;51.256;22.478;2022-07-01T16:26:12;10.13;;;4.13;;
26742;SDS011;14341;51.256;22.478;2022-07-01T16:29:19;9.20;;;4.18;;
26742;SDS011;14341;51.256;22.478;2022-07-01T16:32:25;4.95;;;4.45;;
26742;SDS011;14341;51.256;22.478;2022-07-01T16:35:39;5.55;;;4.75;;
26742;SDS011;14341;51.256;22.478;2022-07-01T16:38:47;8.40;;;5.03;;
26742;SDS011;14341;51.256;22.478;2022-07-01T16:41:59;9.88;;;5.22;;
26742;SDS011;14341;51.256;22.478;2022-07-01T16:45:05;9.02;;;5.38;;
26742;SDS011;14341;51.256;22.478;2022-07-01T16:48:11;8.90;;;6.00;;
26742;SDS011;14341;51.256;22.478;2022-07-01T16:51:18;9.55;;;5.57;;
26742;SDS011;14341;51.256;22.478;2022-07-01T16:54:26;9.40;;;5.20;;
26742;SDS011;14341;51.256;22.478;2022-07-01T16:57:31;11.05;;;5.80;;
26742;SDS011;14341;51.256;22.478;2022-07-01T17:00:37;7.53;;;5.72;;
26742;SDS011;14341;51.256;22.478;2022-07-01T17:03:41;6.95;;;6.25;;
26742;SDS011;14341;51.256;22.478;2022-07-01T17:06:46;7.20;;;6.15;;
26742;SDS011;14341;51.256;22.478;2022-07-01T17:09:50;8.63;;;6.13;;
26742;SDS011;14341;51.256;22.478;2022-07-01T17:12:56;8.70;;;6.85;;
26742;SDS011;14341;51.256;22.478;2022-07-01T17:16:01;8.90;;;6.22;;
26742;SDS011;14341;51.256;22.478;2022-07-01T17:19:05;10.23;;;6.68;;
26742;SDS011;14341;51.256;22.478;2022-07-01T17:22:13;11.10;;;6.93;;
26742;SDS011;14341;51.256;22.478;2022-07-01T17:25:26;16.00;;;6.97;;
26742;SDS011;14341;51.256;22.478;2022-07-01T17:28:36;9.80;;;6.85;;
26742;SDS011;14341;51.256;22.478;2022-07-01T17:31:44;8.57;;;7.13;;
26742;SDS011;14341;51.256;22.478;2022-07-01T17:34:54;8.40;;;7.50;;
26742;SDS011;14341;51.256;22.478;2022-07-01T17:38:01;9.45;;;7.30;;
26742;SDS011;14341;51.256;22.478;2022-07-01T17:41:06;10.82;;;7.63;;
26742;SDS011;14341;51.256;22.478;2022-07-01T17:44:13;10.23;;;7.80;;
26742;SDS011;14341;51.256;22.478;2022-07-01T17:47:17;12.98;;;7.35;;
26742;SDS011;14341;51.256;22.478;2022-07-01T17:50:22;10.20;;;7.82;;
26742;SDS011;14341;51.256;22.478;2022-07-01T17:53:29;15.15;;;7.80;;
26742;SDS011;14341;51.256;22.478;2022-07-01T17:56:33;11.52;;;8.02;;
26742;SDS011;14341;51.256;22.478;2022-07-01T17:59:37;13.88;;;8.23;;
26742;SDS011;14341;51.256;22.478;2022-07-01T18:02:43;15.35;;;7.95;;